Marion, WI (54950)

2:23 PM CDT on September 22, 2014 (GMT -0500)
Clintonville Municipal | Change Station
CLOSE
Current Station
Airport
Location: Clintonville,
Elevation: 823 ft
Nearby Weather Stations

Elev 823 ft 44.62 °N, 88.73 °W | Updated 8 minutes ago

Mostly Cloudy
Mostly Cloudy
68 °F
Feels Like 68 °F
N
5
Wind Variable Wind from West

Today
High -- | Low -- °F
--% Chance of Precip.
Yesterday
High -- | Low -- °F
Precip. -- in
6:42 AM 6:52 PM
Waning Crescent, 2% visible
Pressure 30.19 in
Visibility 10.0 miles
Clouds Overcast 4700 ft
Dew Point 46 °F
Humidity 46%
Rainfall 0.00 in
Snow Depth Not available.
UV 2 out of 12
Pollen 3.20 out of 12
Air Quality Not available.
Flu Activity Not available.
METAR KCLI 221915Z AUTO 28004KT 10SM OVC047 20/08 A3019 RMK AO2

More Conditions Fewer Conditions

Pressure 30.19 in
Visibility 10.0 miles
Clouds Overcast 4700 ft
Dew Point 46 °F
Humidity 46%
Rainfall 0.00 in
Snow Depth Not available.
UV 2 out of 12
Pollen 3.20 out of 12
Air Quality Not available.
Flu Activity Not available.
METAR KCLI 221915Z AUTO 28004KT 10SM OVC047 20/08 A3019 RMK AO2

More Conditions Fewer Conditions

10-Day Weather Forecast

Almanac

Astronomy

Sep. 22, 2014 Rise Set
Actual Time 6:42 AM CDT 6:52 PM CDT
Civil Twilight 6:13 AM CDT 7:22 PM CDT
Nautical Twilight 5:39 AM CDT 7:56 PM CDT
Astronomical Twilight 5:04 AM CDT 8:31 PM CDT
Moon 5:08 AM CDT 6:02 PM CDT
Length of Visible Light 13h 08m
Length of Day
12h 10m
Tomorrow will be 3m 5s shorter.
Waning Crescent, 2% of the Moon is Illuminated
Today
Waning Crescent
Sep 24
New
Oct 1
First Quarter
Oct 8
Full
Oct 15
Last Quarter

Today's Extremes

State Highs State Lows

Community

WunderPhotos

Upload Photos

1,755,514 photos uploaded!

WunderBlogs® & News

Nearby

Snow Depth

Station Depth Elevation
No new snow has been reported.

Earthquake Activity

City Distance Mag. Time & Date
No recent earthquake activity has been reported nearby.
Minimum magnitude displayed is 2.5.

Coastal Water Temperatures

Place Temperature
No Stations Reporting

Nearby Weather Stations